This is the latest recevied weather packets stored in our database for station/object FW1079. If no packets are shown the sender has not sent any weather packets the latest 10 day(s).
| Time | Temp. | Humidity | Pressure | Rain* | Wind** | Luminosity | Snow |
|---|---|---|---|---|---|---|---|
| 1778074167 | 22.78° C | 67% | 1010.9 hPa | 0 mm | - | - | - |
| 1778073567 | 22.78° C | 67% | 1010.9 hPa | 0 mm | - | - | - |
| 1778071767 | 22.22° C | 69% | 1011.9 hPa | 0 mm | - | - | - |
| 1778071166 | 22.22° C | 68% | 1011.9 hPa | 0 mm | - | - | - |
| 1778070867 | 22.22° C | 69% | 1011.9 hPa | 0 mm | - | - | - |
| 1778067566 | 21.67° C | 66% | 1011.9 hPa | 0 mm | - | - | - |
| 1778066966 | 21.67° C | 65% | 1011.9 hPa | 0 mm | - | - | - |
| 1778063066 | 20.56° C | 75% | 1013 hPa | 0 mm | - | - | - |
| 1778062766 | 20.56° C | 75% | 1013 hPa | 0 mm | - | - | - |
| 1778060366 | 18.89° C | 84% | 1013 hPa | 0 mm | - | - | - |
| 1778059167 | 17.78° C | 84% | 1013 hPa | 0 mm | - | - | - |
| 1778058266 | 17.78° C | 85% | 1013 hPa | 0 mm | - | - | - |
| 1778057067 | 17.22° C | 85% | 1013 hPa | 0 mm | - | - | - |
| 1778056166 | 17.22° C | 86% | 1013 hPa | 0 mm | - | - | - |
| 1778055269 | 17.22° C | 86% | 1013 hPa | 0 mm | - | - | - |
| 1778052267 | 16.67° C | 87% | 1013 hPa | 0 mm | - | - | - |
| 1778048666 | 15.56° C | 90% | 1013 hPa | 0 mm | - | - | - |
| 1778042966 | 12.78° C | 93% | 1013 hPa | 0 mm | - | - | - |
| 1778041466 | 12.78° C | 93% | 1013 hPa | 0 mm | - | - | - |
| 1778039366 | 12.78° C | 94% | 1013 hPa | 0 mm | - | - | - |
| 1778034866 | 12.22° C | 93% | 1013 hPa | 0 mm | - | - | - |
| 1778033970 | 12.78° C | 93% | 1013 hPa | 0 mm | - | - | - |
| 1778033065 | 12.78° C | 93% | 1013 hPa | 0 mm | - | - | - |
| 1778030366 | 12.22° C | 93% | 1013 hPa | 0 mm | - | - | - |
| 1778029466 | 12.22° C | 92% | 1014 hPa | 0 mm | - | - | - |
* Rain latest hour (hover to see other rain measurements)
** Current wind speed in m/s (hover to see current wind gust speed)